sensor_id;sensor_type;location;lat;lon;timestamp;noise_LAeq;noise_LA_min;noise_LA_max;noise_LA01;noise_LA95
48148;Laerm;29352;48.708;9.290;2023-04-30T00:00:41;71.10;15.00;96.21;;
48148;Laerm;29352;48.708;9.290;2023-04-30T00:03:07;64.25;15.00;96.21;;
48148;Laerm;29352;48.708;9.290;2023-04-30T00:05:32;65.40;15.00;96.21;;
48148;Laerm;29352;48.708;9.290;2023-04-30T00:07:58;58.18;15.00;93.72;;
48148;Laerm;29352;48.708;9.290;2023-04-30T00:10:23;61.40;15.00;95.31;;
48148;Laerm;29352;48.708;9.290;2023-04-30T00:12:48;41.91;15.00;58.18;;
48148;Laerm;29352;48.708;9.290;2023-04-30T00:15:14;43.65;15.00;50.03;;
48148;Laerm;29352;48.708;9.290;2023-04-30T00:17:40;73.18;15.00;97.17;;
48148;Laerm;29352;48.708;9.290;2023-04-30T00:20:06;44.57;15.00;50.23;;
48148;Laerm;29352;48.708;9.290;2023-04-30T00:22:32;44.12;15.00;50.43;;
48148;Laerm;29352;48.708;9.290;2023-04-30T00:24:58;43.66;15.00;49.81;;
48148;Laerm;29352;48.708;9.290;2023-04-30T00:27:23;44.29;15.00;50.13;;
48148;Laerm;29352;48.708;9.290;2023-04-30T00:29:48;77.51;15.00;98.15;;
48148;Laerm;29352;48.708;9.290;2023-04-30T00:32:14;45.46;15.00;50.13;;
48148;Laerm;29352;48.708;9.290;2023-04-30T00:34:39;43.10;15.00;49.70;;
48148;Laerm;29352;48.708;9.290;2023-04-30T00:37:05;42.36;15.00;49.92;;
48148;Laerm;29352;48.708;9.290;2023-04-30T00:39:30;42.47;15.00;49.21;;
48148;Laerm;29352;48.708;9.290;2023-04-30T00:41:56;43.06;15.00;49.92;;
48148;Laerm;29352;48.708;9.290;2023-04-30T00:44:21;47.59;15.00;77.97;;
48148;Laerm;29352;48.708;9.290;2023-04-30T00:46:46;44.00;15.00;76.00;;
48148;Laerm;29352;48.708;9.290;2023-04-30T00:49:12;66.39;15.00;96.21;;
48148;Laerm;29352;48.708;9.290;2023-04-30T00:51:40;41.68;15.00;49.58;;
48148;Laerm;29352;48.708;9.290;2023-04-30T00:54:07;42.20;15.00;49.08;;
48148;Laerm;29352;48.708;9.290;2023-04-30T00:56:33;42.87;15.00;49.70;;
48148;Laerm;29352;48.708;9.290;2023-04-30T00:58:59;43.33;15.00;50.03;;
48148;Laerm;29352;48.708;9.290;2023-04-30T01:01:27;42.60;15.00;49.58;;
48148;Laerm;29352;48.708;9.290;2023-04-30T01:03:56;43.04;15.00;50.03;;
48148;Laerm;29352;48.708;9.290;2023-04-30T01:06:22;42.60;15.00;49.46;;
48148;Laerm;29352;48.708;9.290;2023-04-30T01:08:49;42.61;15.00;56.10;;
48148;Laerm;29352;48.708;9.290;2023-04-30T01:14:12;42.06;15.00;49.81;;
48148;Laerm;29352;48.708;9.290;2023-04-30T01:19:44;42.95;15.00;49.46;;
48148;Laerm;29352;48.708;9.290;2023-04-30T01:28:35;41.59;15.00;54.23;;
48148;Laerm;29352;48.708;9.290;2023-04-30T01:31:02;66.90;15.00;93.73;;
48148;Laerm;29352;48.708;9.290;2023-04-30T01:33:28;67.91;15.00;96.21;;
48148;Laerm;29352;48.708;9.290;2023-04-30T01:44:48;61.51;15.00;96.21;;
48148;Laerm;29352;48.708;9.290;2023-04-30T01:50:35;42.69;15.00;51.22;;
48148;Laerm;29352;48.708;9.290;2023-04-30T01:53:09;43.25;15.00;49.92;;
48148;Laerm;29352;48.708;9.290;2023-04-30T01:55:49;42.48;15.00;48.95;;
48148;Laerm;29352;48.708;9.290;2023-04-30T01:58:19;44.07;15.00;75.89;;
48148;Laerm;29352;48.708;9.290;2023-04-30T02:00:46;42.24;15.00;49.81;;
48148;Laerm;29352;48.708;9.290;2023-04-30T02:03:12;42.34;15.00;49.34;;
48148;Laerm;29352;48.708;9.290;2023-04-30T02:05:37;42.08;15.00;50.43;;
48148;Laerm;29352;48.708;9.290;2023-04-30T02:08:03;42.54;15.00;56.35;;
48148;Laerm;29352;48.708;9.290;2023-04-30T02:10:28;42.24;15.00;50.03;;
48148;Laerm;29352;48.708;9.290;2023-04-30T02:12:54;43.12;15.00;49.70;;
48148;Laerm;29352;48.708;9.290;2023-04-30T02:15:20;43.86;15.00;50.03;;
48148;Laerm;29352;48.708;9.290;2023-04-30T02:17:45;43.63;15.00;50.53;;
48148;Laerm;29352;48.708;9.290;2023-04-30T02:20:11;62.80;15.00;93.72;;
48148;Laerm;29352;48.708;9.290;2023-04-30T02:22:36;52.51;15.00;84.19;;
48148;Laerm;29352;48.708;9.290;2023-04-30T02:25:02;65.96;15.00;96.22;;
48148;Laerm;29352;48.708;9.290;2023-04-30T02:27:31;81.86;15.00;99.49;;
48148;Laerm;29352;48.708;9.290;2023-04-30T02:29:58;85.77;15.00;100.50;;
48148;Laerm;29352;48.708;9.290;2023-04-30T02:32:24;88.14;15.00;100.30;;
48148;Laerm;29352;48.708;9.290;2023-04-30T02:34:50;87.51;15.00;100.14;;
48148;Laerm;29352;48.708;9.290;2023-04-30T02:37:15;87.25;15.00;99.49;;
48148;Laerm;29352;48.708;9.290;2023-04-30T02:39:41;86.32;15.00;100.30;;
48148;Laerm;29352;48.708;9.290;2023-04-30T02:42:07;86.95;15.00;100.36;;
48148;Laerm;29352;48.708;9.290;2023-04-30T02:44:33;84.27;15.00;100.30;;
48148;Laerm;29352;48.708;9.290;2023-04-30T02:47:00;88.25;15.00;100.49;;
48148;Laerm;29352;48.708;9.290;2023-04-30T02:49:26;88.48;15.00;101.33;;
48148;Laerm;29352;48.708;9.290;2023-04-30T02:51:52;87.73;15.00;99.61;;
48148;Laerm;29352;48.708;9.290;2023-04-30T02:54:17;86.75;15.00;100.65;;
48148;Laerm;29352;48.708;9.290;2023-04-30T02:56:43;86.81;15.00;99.73;;
48148;Laerm;29352;48.708;9.290;2023-04-30T02:59:09;81.12;15.00;99.74;;
48148;Laerm;29352;48.708;9.290;2023-04-30T03:01:35;83.24;15.00;99.22;;
48148;Laerm;29352;48.708;9.290;2023-04-30T03:04:01;66.71;15.00;97.18;;
48148;Laerm;29352;48.708;9.290;2023-04-30T03:06:28;70.19;15.00;96.22;;
48148;Laerm;29352;48.708;9.290;2023-04-30T03:08:54;47.68;15.00;81.13;;
48148;Laerm;29352;48.708;9.290;2023-04-30T03:11:19;64.18;15.00;96.21;;
48148;Laerm;29352;48.708;9.290;2023-04-30T03:13:47;66.39;15.00;96.21;;
48148;Laerm;29352;48.708;9.290;2023-04-30T03:16:16;68.55;15.00;97.18;;
48148;Laerm;29352;48.708;9.290;2023-04-30T03:18:43;54.24;15.00;89.57;;
48148;Laerm;29352;48.708;9.290;2023-04-30T03:21:09;64.63;15.00;96.21;;
48148;Laerm;29352;48.708;9.290;2023-04-30T03:23:34;67.89;15.00;96.22;;
48148;Laerm;29352;48.708;9.290;2023-04-30T03:26:00;61.04;15.00;93.72;;
48148;Laerm;29352;48.708;9.290;2023-04-30T03:28:25;71.23;15.00;96.21;;
48148;Laerm;29352;48.708;9.290;2023-04-30T03:30:51;79.62;15.00;99.22;;
48148;Laerm;29352;48.708;9.290;2023-04-30T03:33:16;65.01;15.00;96.22;;
48148;Laerm;29352;48.708;9.290;2023-04-30T03:35:42;68.34;15.00;96.48;;
48148;Laerm;29352;48.708;9.290;2023-04-30T03:38:08;79.78;15.00;98.15;;
48148;Laerm;29352;48.708;9.290;2023-04-30T03:40:33;82.97;15.00;98.87;;
48148;Laerm;29352;48.708;9.290;2023-04-30T03:42:59;66.76;15.00;96.21;;
48148;Laerm;29352;48.708;9.290;2023-04-30T03:45:24;54.26;15.00;90.19;;
48148;Laerm;29352;48.708;9.290;2023-04-30T03:47:50;58.09;15.00;93.71;;
48148;Laerm;29352;48.708;9.290;2023-04-30T03:50:17;79.17;15.00;99.22;;
48148;Laerm;29352;48.708;9.290;2023-04-30T03:52:44;81.98;15.00;99.34;;
48148;Laerm;29352;48.708;9.290;2023-04-30T03:55:10;74.41;15.00;99.65;;
48148;Laerm;29352;48.708;9.290;2023-04-30T03:57:38;79.18;15.00;99.23;;
48148;Laerm;29352;48.708;9.290;2023-04-30T04:00:06;73.14;15.00;96.72;;
48148;Laerm;29352;48.708;9.290;2023-04-30T04:02:35;78.60;15.00;98.15;;
48148;Laerm;29352;48.708;9.290;2023-04-30T04:05:03;75.01;15.00;98.01;;
48148;Laerm;29352;48.708;9.290;2023-04-30T04:07:28;79.67;15.00;99.22;;
48148;Laerm;29352;48.708;9.290;2023-04-30T04:09:54;78.26;15.00;98.15;;
48148;Laerm;29352;48.708;9.290;2023-04-30T04:12:20;79.04;15.00;99.22;;
48148;Laerm;29352;48.708;9.290;2023-04-30T04:14:46;73.47;15.00;96.72;;
48148;Laerm;29352;48.708;9.290;2023-04-30T04:17:11;68.25;15.00;96.21;;
48148;Laerm;29352;48.708;9.290;2023-04-30T04:19:37;84.32;15.00;99.36;;
48148;Laerm;29352;48.708;9.290;2023-04-30T04:22:02;81.91;15.00;99.23;;
48148;Laerm;29352;48.708;9.290;2023-04-30T04:24:28;45.09;15.00;52.16;;
48148;Laerm;29352;48.708;9.290;2023-04-30T04:26:54;81.97;15.00;99.28;;
48148;Laerm;29352;48.708;9.290;2023-04-30T04:29:20;67.24;15.00;96.21;;
48148;Laerm;29352;48.708;9.290;2023-04-30T04:31:45;43.19;15.00;50.80;;
48148;Laerm;29352;48.708;9.290;2023-04-30T04:34:13;43.72;15.00;50.03;;
48148;Laerm;29352;48.708;9.290;2023-04-30T04:36:38;43.57;15.00;49.70;;
48148;Laerm;29352;48.708;9.290;2023-04-30T04:39:04;48.95;15.00;54.87;;
48148;Laerm;29352;48.708;9.290;2023-04-30T04:41:32;48.67;15.00;53.19;;
48148;Laerm;29352;48.708;9.290;2023-04-30T04:44:01;50.85;15.00;84.17;;
48148;Laerm;29352;48.708;9.290;2023-04-30T04:46:29;54.47;15.00;89.84;;
48148;Laerm;29352;48.708;9.290;2023-04-30T04:48:56;45.62;15.00;50.80;;
48148;Laerm;29352;48.708;9.290;2023-04-30T04:51:22;66.11;15.00;98.42;;
48148;Laerm;29352;48.708;9.290;2023-04-30T04:53:47;45.48;15.00;50.89;;
48148;Laerm;29352;48.708;9.290;2023-04-30T04:56:13;57.79;15.00;93.72;;
48148;Laerm;29352;48.708;9.290;2023-04-30T04:58:40;76.44;15.00;99.98;;
48148;Laerm;29352;48.708;9.290;2023-04-30T05:01:05;49.29;15.00;83.82;;
48148;Laerm;29352;48.708;9.290;2023-04-30T05:03:33;56.56;15.00;91.75;;
48148;Laerm;29352;48.708;9.290;2023-04-30T05:06:02;45.90;15.00;50.53;;
48148;Laerm;29352;48.708;9.290;2023-04-30T05:08:27;44.64;15.00;49.81;;
48148;Laerm;29352;48.708;9.290;2023-04-30T05:10:53;57.74;15.00;93.16;;
48148;Laerm;29352;48.708;9.290;2023-04-30T05:13:19;62.73;15.00;93.77;;
48148;Laerm;29352;48.708;9.290;2023-04-30T05:15:44;78.05;15.00;96.96;;
48148;Laerm;29352;48.708;9.290;2023-04-30T05:18:09;80.73;15.00;99.97;;
48148;Laerm;29352;48.708;9.290;2023-04-30T05:20:35;74.48;15.00;98.62;;
48148;Laerm;29352;48.708;9.290;2023-04-30T05:23:00;76.19;15.00;100.30;;
48148;Laerm;29352;48.708;9.290;2023-04-30T05:25:26;76.04;15.00;99.22;;
48148;Laerm;29352;48.708;9.290;2023-04-30T05:27:51;75.05;15.00;99.22;;
48148;Laerm;29352;48.708;9.290;2023-04-30T05:30:17;83.82;15.00;99.23;;
48148;Laerm;29352;48.708;9.290;2023-04-30T05:32:43;87.26;15.00;100.30;;
48148;Laerm;29352;48.708;9.290;2023-04-30T05:35:10;86.86;15.00;100.45;;
48148;Laerm;29352;48.708;9.290;2023-04-30T05:37:36;86.58;15.00;98.80;;
48148;Laerm;29352;48.708;9.290;2023-04-30T05:40:01;86.47;15.00;99.74;;
48148;Laerm;29352;48.708;9.290;2023-04-30T05:42:27;85.72;15.00;99.23;;
48148;Laerm;29352;48.708;9.290;2023-04-30T05:44:52;85.86;15.00;100.30;;
48148;Laerm;29352;48.708;9.290;2023-04-30T05:47:18;80.71;15.00;99.43;;
48148;Laerm;29352;48.708;9.290;2023-04-30T05:49:43;64.65;15.00;93.72;;
48148;Laerm;29352;48.708;9.290;2023-04-30T05:52:09;63.09;15.00;96.22;;
48148;Laerm;29352;48.708;9.290;2023-04-30T05:54:34;67.31;15.00;96.21;;
48148;Laerm;29352;48.708;9.290;2023-04-30T05:57:01;74.22;15.00;96.31;;
48148;Laerm;29352;48.708;9.290;2023-04-30T05:59:26;81.44;15.00;98.15;;
48148;Laerm;29352;48.708;9.290;2023-04-30T06:01:52;77.84;15.00;97.66;;
48148;Laerm;29352;48.708;9.290;2023-04-30T06:04:17;74.52;15.00;96.24;;
48148;Laerm;29352;48.708;9.290;2023-04-30T06:06:43;83.09;15.00;99.22;;
48148;Laerm;29352;48.708;9.290;2023-04-30T06:09:08;85.80;15.00;100.27;;
48148;Laerm;29352;48.708;9.290;2023-04-30T06:11:35;78.44;15.00;98.15;;
48148;Laerm;29352;48.708;9.290;2023-04-30T06:14:04;80.16;15.00;99.73;;
48148;Laerm;29352;48.708;9.290;2023-04-30T06:16:30;85.02;15.00;99.97;;
48148;Laerm;29352;48.708;9.290;2023-04-30T06:18:55;84.18;15.00;98.15;;
48148;Laerm;29352;48.708;9.290;2023-04-30T06:21:21;82.09;15.00;99.23;;
48148;Laerm;29352;48.708;9.290;2023-04-30T06:23:51;83.57;15.00;99.22;;
48148;Laerm;29352;48.708;9.290;2023-04-30T06:26:18;83.58;15.00;99.65;;
48148;Laerm;29352;48.708;9.290;2023-04-30T06:28:43;83.30;15.00;99.93;;
48148;Laerm;29352;48.708;9.290;2023-04-30T06:31:09;84.95;15.00;99.23;;
48148;Laerm;29352;48.708;9.290;2023-04-30T06:33:35;85.08;15.00;99.22;;
48148;Laerm;29352;48.708;9.290;2023-04-30T06:36:00;86.50;15.00;99.36;;
48148;Laerm;29352;48.708;9.290;2023-04-30T06:38:25;80.82;15.00;98.15;;
48148;Laerm;29352;48.708;9.290;2023-04-30T06:40:51;80.91;15.00;98.89;;
48148;Laerm;29352;48.708;9.290;2023-04-30T06:43:16;80.41;15.00;98.98;;
48148;Laerm;29352;48.708;9.290;2023-04-30T06:45:42;84.71;15.00;100.71;;
48148;Laerm;29352;48.708;9.290;2023-04-30T06:48:07;85.91;15.00;100.23;;
48148;Laerm;29352;48.708;9.290;2023-04-30T06:50:33;84.93;15.00;100.23;;
48148;Laerm;29352;48.708;9.290;2023-04-30T06:52:58;80.66;15.00;99.49;;
48148;Laerm;29352;48.708;9.290;2023-04-30T06:55:24;72.90;15.00;98.13;;
48148;Laerm;29352;48.708;9.290;2023-04-30T06:57:49;72.63;15.00;97.23;;
48148;Laerm;29352;48.708;9.290;2023-04-30T07:00:15;71.82;15.00;96.73;;
48148;Laerm;29352;48.708;9.290;2023-04-30T07:02:41;70.33;15.00;96.21;;
48148;Laerm;29352;48.708;9.290;2023-04-30T07:05:06;77.82;15.00;98.23;;
48148;Laerm;29352;48.708;9.290;2023-04-30T07:07:33;67.75;15.00;96.21;;
48148;Laerm;29352;48.708;9.290;2023-04-30T07:09:59;76.94;15.00;99.01;;
48148;Laerm;29352;48.708;9.290;2023-04-30T07:12:24;48.25;15.00;76.33;;
48148;Laerm;29352;48.708;9.290;2023-04-30T07:14:50;51.01;43.90;55.42;;
48148;Laerm;29352;48.708;9.290;2023-04-30T07:17:15;52.38;45.66;55.14;;
48148;Laerm;29352;48.708;9.290;2023-04-30T07:19:41;52.33;40.89;55.30;;
48148;Laerm;29352;48.708;9.290;2023-04-30T07:22:06;52.70;45.04;55.30;;
48148;Laerm;29352;48.708;9.290;2023-04-30T07:24:32;54.03;51.14;55.01;;
48148;Laerm;29352;48.708;9.290;2023-04-30T07:26:58;54.05;52.93;55.11;;
48148;Laerm;29352;48.708;9.290;2023-04-30T07:29:28;53.98;52.82;55.11;;
48148;Laerm;29352;48.708;9.290;2023-04-30T07:31:54;53.96;52.76;54.87;;
48148;Laerm;29352;48.708;9.290;2023-04-30T07:34:20;53.97;52.65;55.14;;
48148;Laerm;29352;48.708;9.290;2023-04-30T07:36:47;53.91;52.71;55.20;;
48148;Laerm;29352;48.708;9.290;2023-04-30T07:39:13;53.89;52.65;55.01;;
48148;Laerm;29352;48.708;9.290;2023-04-30T07:41:38;53.89;52.76;54.87;;
48148;Laerm;29352;48.708;9.290;2023-04-30T07:44:04;53.80;52.58;54.83;;
48148;Laerm;29352;48.708;9.290;2023-04-30T07:46:30;53.78;52.16;54.82;;
48148;Laerm;29352;48.708;9.290;2023-04-30T07:48:55;53.72;52.65;55.14;;
48148;Laerm;29352;48.708;9.290;2023-04-30T07:51:21;53.68;52.47;54.62;;
48148;Laerm;29352;48.708;9.290;2023-04-30T07:53:46;53.54;52.22;54.58;;
48148;Laerm;29352;48.708;9.290;2023-04-30T07:56:12;53.50;52.22;54.47;;
48148;Laerm;29352;48.708;9.290;2023-04-30T07:58:37;53.49;52.19;54.54;;
48148;Laerm;29352;48.708;9.290;2023-04-30T08:01:03;53.53;52.22;54.62;;
48148;Laerm;29352;48.708;9.290;2023-04-30T08:03:28;53.58;52.47;54.54;;
48148;Laerm;29352;48.708;9.290;2023-04-30T08:05:53;53.54;52.29;54.62;;
48148;Laerm;29352;48.708;9.290;2023-04-30T08:08:19;53.59;52.47;54.51;;
48148;Laerm;29352;48.708;9.290;2023-04-30T08:10:44;53.56;52.35;54.62;;
48148;Laerm;29352;48.708;9.290;2023-04-30T08:13:10;53.51;52.22;54.54;;
48148;Laerm;29352;48.708;9.290;2023-04-30T08:15:35;53.55;52.29;54.65;;
48148;Laerm;29352;48.708;9.290;2023-04-30T08:18:02;53.50;52.22;54.69;;
48148;Laerm;29352;48.708;9.290;2023-04-30T08:20:28;53.47;52.29;54.90;;
48148;Laerm;29352;48.708;9.290;2023-04-30T08:22:53;53.45;52.29;54.47;;
48148;Laerm;29352;48.708;9.290;2023-04-30T08:25:19;53.48;52.29;54.54;;
48148;Laerm;29352;48.708;9.290;2023-04-30T08:27:44;53.57;52.35;54.54;;
48148;Laerm;29352;48.708;9.290;2023-04-30T08:30:11;53.64;52.35;54.69;;
48148;Laerm;29352;48.708;9.290;2023-04-30T08:32:36;53.67;52.35;54.66;;
48148;Laerm;29352;48.708;9.290;2023-04-30T08:35:06;53.68;52.59;54.69;;
48148;Laerm;29352;48.708;9.290;2023-04-30T08:37:33;53.64;52.41;54.58;;
48148;Laerm;29352;48.708;9.290;2023-04-30T08:39:59;53.65;52.35;54.69;;
48148;Laerm;29352;48.708;9.290;2023-04-30T08:42:30;53.68;52.59;54.69;;
48148;Laerm;29352;48.708;9.290;2023-04-30T08:45:00;53.66;52.47;54.94;;
48148;Laerm;29352;48.708;9.290;2023-04-30T08:47:28;53.66;52.53;54.65;;
48148;Laerm;29352;48.708;9.290;2023-04-30T08:49:53;53.60;52.47;54.58;;
48148;Laerm;29352;48.708;9.290;2023-04-30T08:52:21;53.62;52.24;54.65;;
48148;Laerm;29352;48.708;9.290;2023-04-30T08:54:49;53.60;52.41;54.80;;
48148;Laerm;29352;48.708;9.290;2023-04-30T08:57:16;53.61;52.47;54.73;;
48148;Laerm;29352;48.708;9.290;2023-04-30T08:59:44;53.63;52.53;54.58;;
48148;Laerm;29352;48.708;9.290;2023-04-30T09:02:13;53.57;52.53;54.54;;
48148;Laerm;29352;48.708;9.290;2023-04-30T09:04:38;53.56;52.41;54.80;;
48148;Laerm;29352;48.708;9.290;2023-04-30T09:07:05;53.55;52.35;54.58;;
48148;Laerm;29352;48.708;9.290;2023-04-30T09:09:37;53.53;52.41;54.47;;
48148;Laerm;29352;48.708;9.290;2023-04-30T09:12:13;53.54;52.29;54.54;;
48148;Laerm;29352;48.708;9.290;2023-04-30T09:14:40;53.51;52.35;54.69;;
48148;Laerm;29352;48.708;9.290;2023-04-30T09:17:07;53.53;52.35;54.58;;
48148;Laerm;29352;48.708;9.290;2023-04-30T09:19:36;53.57;52.29;54.80;;
48148;Laerm;29352;48.708;9.290;2023-04-30T09:22:22;53.62;52.41;54.76;;
48148;Laerm;29352;48.708;9.290;2023-04-30T09:24:50;53.66;52.53;54.58;;
48148;Laerm;29352;48.708;9.290;2023-04-30T09:27:21;53.64;52.35;54.62;;
48148;Laerm;29352;48.708;9.290;2023-04-30T09:29:47;53.63;52.59;54.80;;
48148;Laerm;29352;48.708;9.290;2023-04-30T09:32:13;53.65;52.59;54.80;;
48148;Laerm;29352;48.708;9.290;2023-04-30T09:34:39;53.55;52.16;54.62;;
48148;Laerm;29352;48.708;9.290;2023-04-30T09:37:05;53.54;51.68;54.62;;
48148;Laerm;29352;48.708;9.290;2023-04-30T09:39:32;53.64;52.47;54.80;;
48148;Laerm;29352;48.708;9.290;2023-04-30T09:42:09;53.63;52.35;54.62;;
48148;Laerm;29352;48.708;9.290;2023-04-30T09:44:38;53.68;52.41;54.69;;
48148;Laerm;29352;48.708;9.290;2023-04-30T09:47:14;53.66;52.53;54.90;;
48148;Laerm;29352;48.708;9.290;2023-04-30T09:49:42;53.63;52.59;54.62;;
48148;Laerm;29352;48.708;9.290;2023-04-30T09:52:09;53.63;52.09;54.69;;
48148;Laerm;29352;48.708;9.290;2023-04-30T09:54:37;53.64;52.47;54.73;;
48148;Laerm;29352;48.708;9.290;2023-04-30T09:57:02;53.63;52.53;54.73;;
48148;Laerm;29352;48.708;9.290;2023-04-30T09:59:33;53.54;51.81;54.76;;
48148;Laerm;29352;48.708;9.290;2023-04-30T10:02:07;53.62;52.41;54.69;;
48148;Laerm;29352;48.708;9.290;2023-04-30T10:04:41;53.52;52.29;54.62;;
48148;Laerm;29352;48.708;9.290;2023-04-30T10:07:18;53.49;51.89;54.65;;
48148;Laerm;29352;48.708;9.290;2023-04-30T10:10:08;53.40;51.38;54.62;;
48148;Laerm;29352;48.708;9.290;2023-04-30T10:12:59;53.47;51.68;54.51;;
48148;Laerm;29352;48.708;9.290;2023-04-30T10:15:34;53.41;50.33;54.58;;
48148;Laerm;29352;48.708;9.290;2023-04-30T10:18:20;53.31;50.80;54.51;;
48148;Laerm;29352;48.708;9.290;2023-04-30T10:20:51;53.42;52.03;54.58;;
48148;Laerm;29352;48.708;9.290;2023-04-30T10:23:18;53.42;52.22;54.58;;
48148;Laerm;29352;48.708;9.290;2023-04-30T10:25:46;53.41;52.09;54.54;;
48148;Laerm;29352;48.708;9.290;2023-04-30T10:28:13;53.42;52.22;54.51;;
48148;Laerm;29352;48.708;9.290;2023-04-30T10:30:40;53.39;51.89;54.47;;
48148;Laerm;29352;48.708;9.290;2023-04-30T10:34:05;53.35;51.89;54.35;;
48148;Laerm;29352;48.708;9.290;2023-04-30T10:36:47;53.36;52.29;54.39;;
48148;Laerm;29352;48.708;9.290;2023-04-30T10:39:20;53.34;52.03;54.23;;
48148;Laerm;29352;48.708;9.290;2023-04-30T10:41:47;53.32;52.09;54.35;;
48148;Laerm;29352;48.708;9.290;2023-04-30T10:44:14;53.33;52.03;54.62;;
48148;Laerm;29352;48.708;9.290;2023-04-30T10:46:41;53.33;52.06;54.47;;
48148;Laerm;29352;48.708;9.290;2023-04-30T10:49:07;53.28;51.53;54.39;;
48148;Laerm;29352;48.708;9.290;2023-04-30T10:51:50;53.33;51.68;54.35;;
48148;Laerm;29352;48.708;9.290;2023-04-30T10:54:33;53.34;52.16;54.51;;
48148;Laerm;29352;48.708;9.290;2023-04-30T10:57:15;53.36;52.16;54.35;;
48148;Laerm;29352;48.708;9.290;2023-04-30T11:00:19;53.18;51.06;54.27;;
48148;Laerm;29352;48.708;9.290;2023-04-30T11:02:46;53.37;52.16;54.39;;
48148;Laerm;29352;48.708;9.290;2023-04-30T11:05:17;53.34;51.89;54.65;;
48148;Laerm;29352;48.708;9.290;2023-04-30T11:07:46;53.35;52.16;54.35;;
48148;Laerm;29352;48.708;9.290;2023-04-30T11:10:14;53.31;52.09;54.39;;
48148;Laerm;29352;48.708;9.290;2023-04-30T11:12:51;53.31;52.03;57.06;;
48148;Laerm;29352;48.708;9.290;2023-04-30T11:15:20;53.33;51.61;54.43;;
48148;Laerm;29352;48.708;9.290;2023-04-30T11:17:48;53.35;52.09;54.35;;
48148;Laerm;29352;48.708;9.290;2023-04-30T11:20:19;53.31;51.96;54.23;;
48148;Laerm;29352;48.708;9.290;2023-04-30T11:22:45;53.29;52.09;54.27;;
48148;Laerm;29352;48.708;9.290;2023-04-30T11:25:12;53.16;51.61;54.34;;
48148;Laerm;29352;48.708;9.290;2023-04-30T11:27:42;53.15;51.38;54.43;;
48148;Laerm;29352;48.708;9.290;2023-04-30T11:30:16;52.89;50.43;54.19;;
48148;Laerm;29352;48.708;9.290;2023-04-30T11:32:46;52.93;51.22;54.23;;
48148;Laerm;29352;48.708;9.290;2023-04-30T11:35:16;52.85;50.62;54.03;;
48148;Laerm;29352;48.708;9.290;2023-04-30T11:37:43;52.54;50.53;54.03;;
48148;Laerm;29352;48.708;9.290;2023-04-30T11:40:12;53.09;51.46;54.23;;
48148;Laerm;29352;48.708;9.290;2023-04-30T11:42:42;53.13;50.71;54.15;;
48148;Laerm;29352;48.708;9.290;2023-04-30T11:45:16;53.05;51.30;54.27;;
48148;Laerm;29352;48.708;9.290;2023-04-30T11:47:50;53.04;50.98;54.19;;
48148;Laerm;29352;48.708;9.290;2023-04-30T11:50:21;52.99;51.03;54.11;;
48148;Laerm;29352;48.708;9.290;2023-04-30T11:52:55;53.10;51.53;54.19;;
48148;Laerm;29352;48.708;9.290;2023-04-30T11:55:24;53.16;51.75;54.19;;
48148;Laerm;29352;48.708;9.290;2023-04-30T11:57:53;53.18;51.68;54.23;;
48148;Laerm;29352;48.708;9.290;2023-04-30T12:00:26;53.19;51.89;54.15;;
48148;Laerm;29352;48.708;9.290;2023-04-30T12:02:58;53.19;52.03;54.15;;
48148;Laerm;29352;48.708;9.290;2023-04-30T12:05:26;53.13;51.96;54.23;;
48148;Laerm;29352;48.708;9.290;2023-04-30T12:08:05;53.10;51.75;54.19;;
48148;Laerm;29352;48.708;9.290;2023-04-30T12:10:32;53.11;51.89;54.31;;
48148;Laerm;29352;48.708;9.290;2023-04-30T12:12:58;52.60;50.13;54.15;;
48148;Laerm;29352;48.708;9.290;2023-04-30T12:15:25;52.99;51.22;54.23;;
48148;Laerm;29352;48.708;9.290;2023-04-30T12:17:54;53.08;51.75;54.11;;
48148;Laerm;29352;48.708;9.290;2023-04-30T12:20:22;53.10;51.61;54.15;;
48148;Laerm;29352;48.708;9.290;2023-04-30T12:22:49;53.10;51.75;54.47;;
48148;Laerm;29352;48.708;9.290;2023-04-30T12:25:19;53.10;47.12;54.11;;
48148;Laerm;29352;48.708;9.290;2023-04-30T12:27:48;53.06;51.82;54.11;;
48148;Laerm;29352;48.708;9.290;2023-04-30T12:30:21;53.03;51.38;54.11;;
48148;Laerm;29352;48.708;9.290;2023-04-30T12:32:50;53.02;51.82;54.01;;
48148;Laerm;29352;48.708;9.290;2023-04-30T12:35:21;53.09;51.61;54.19;;
48148;Laerm;29352;48.708;9.290;2023-04-30T12:37:50;53.13;51.75;54.23;;
48148;Laerm;29352;48.708;9.290;2023-04-30T12:40:19;53.13;51.68;54.11;;
48148;Laerm;29352;48.708;9.290;2023-04-30T12:42:45;53.14;51.61;54.23;;
48148;Laerm;29352;48.708;9.290;2023-04-30T12:45:13;53.11;51.96;54.07;;
48148;Laerm;29352;48.708;9.290;2023-04-30T12:47:58;53.07;51.82;54.11;;
48148;Laerm;29352;48.708;9.290;2023-04-30T12:50:23;53.08;51.75;54.15;;
48148;Laerm;29352;48.708;9.290;2023-04-30T12:52:49;53.04;51.82;54.07;;
48148;Laerm;29352;48.708;9.290;2023-04-30T12:55:20;53.02;51.82;54.15;;
48148;Laerm;29352;48.708;9.290;2023-04-30T12:58:12;53.02;51.81;54.11;;
48148;Laerm;29352;48.708;9.290;2023-04-30T13:00:49;53.08;51.61;54.16;;
48148;Laerm;29352;48.708;9.290;2023-04-30T13:03:18;53.00;51.88;54.11;;
48148;Laerm;29352;48.708;9.290;2023-04-30T13:05:48;52.99;51.68;53.94;;
48148;Laerm;29352;48.708;9.290;2023-04-30T13:08:15;52.97;51.61;54.03;;
48148;Laerm;29352;48.708;9.290;2023-04-30T13:10:41;53.01;51.75;54.11;;
48148;Laerm;29352;48.708;9.290;2023-04-30T13:13:07;52.98;51.46;54.07;;
48148;Laerm;29352;48.708;9.290;2023-04-30T13:15:32;52.99;51.75;54.15;;
48148;Laerm;29352;48.708;9.290;2023-04-30T13:17:58;53.02;51.53;54.07;;
48148;Laerm;29352;48.708;9.290;2023-04-30T13:20:23;52.99;51.53;54.03;;
48148;Laerm;29352;48.708;9.290;2023-04-30T13:22:52;53.03;51.46;54.11;;
48148;Laerm;29352;48.708;9.290;2023-04-30T13:25:18;53.03;51.75;54.04;;
48148;Laerm;29352;48.708;9.290;2023-04-30T13:27:44;52.98;51.46;54.15;;
48148;Laerm;29352;48.708;9.290;2023-04-30T13:30:10;52.97;51.75;54.03;;
48148;Laerm;29352;48.708;9.290;2023-04-30T13:32:36;52.99;51.75;54.07;;
48148;Laerm;29352;48.708;9.290;2023-04-30T13:35:02;53.00;51.68;53.99;;
48148;Laerm;29352;48.708;9.290;2023-04-30T13:37:28;52.92;51.75;54.03;;
48148;Laerm;29352;48.708;9.290;2023-04-30T13:39:56;52.91;51.82;53.94;;
48148;Laerm;29352;48.708;9.290;2023-04-30T13:42:24;52.96;51.46;54.23;;
48148;Laerm;29352;48.708;9.290;2023-04-30T13:44:49;53.00;51.82;54.23;;
48148;Laerm;29352;48.708;9.290;2023-04-30T13:47:15;52.96;51.46;53.99;;
48148;Laerm;29352;48.708;9.290;2023-04-30T13:49:41;52.98;51.53;53.90;;
48148;Laerm;29352;48.708;9.290;2023-04-30T13:52:06;52.99;51.75;54.07;;
48148;Laerm;29352;48.708;9.290;2023-04-30T13:54:32;52.98;51.53;54.03;;
48148;Laerm;29352;48.708;9.290;2023-04-30T13:56:58;52.94;51.46;54.07;;
48148;Laerm;29352;48.708;9.290;2023-04-30T13:59:24;52.90;51.46;53.90;;
48148;Laerm;29352;48.708;9.290;2023-04-30T14:01:50;52.90;51.53;53.99;;
48148;Laerm;29352;48.708;9.290;2023-04-30T14:04:16;52.89;51.53;53.94;;
48148;Laerm;29352;48.708;9.290;2023-04-30T14:06:42;52.91;51.46;53.94;;
48148;Laerm;29352;48.708;9.290;2023-04-30T14:09:07;52.96;51.68;53.94;;
48148;Laerm;29352;48.708;9.290;2023-04-30T14:11:33;52.91;51.53;53.86;;